BRIO2: Bridgeport 4E

                                SHEF ID:       BRIO2     Canadian River at Bridgeport, OK
STATION TYPE:
Regulating: Stage = 15.00, Flow = 8372

STAGE RIV-FLOW BAT-LOAD
ft cfs volt
Ccp-Rev Ccp-Rev Ccp-Rev
(America/Chicago)
10/27 00:00 10.66 426 12.75
10/27 01:00 10.64 417 12.73
10/27 02:00 10.61 404 12.73
10/27 03:00 10.61 404 12.73
10/27 04:00 10.59 395 12.73
10/27 05:00 10.57 387 12.72
10/27 06:00 10.53 370 12.71
10/27 07:00 10.48 348 12.70
10/27 08:00 10.47 344 12.67
10/27 09:00 10.44 330 12.69
10/27 10:00 10.49 353 12.91
10/27 11:00 10.44 330 13.36
10/27 12:00 10.47 344 13.72
10/27 13:00 10.46 339 13.81
10/27 14:00 10.45 335 13.52
10/27 15:00 10.44 330 13.51
10/27 16:00 10.43 326 13.49
10/27 17:00 10.41 317 13.45
10/27 18:00 10.40 313 13.38
10/27 19:00 10.39 308 13.10
10/27 20:00 10.38 304 12.82
10/27 21:00 10.37 300 12.73
10/27 22:00 10.36 296 12.71
10/27 23:00 10.36 296 12.70
Data processed at Sat 28Oct2023 04:55 GMT

Parsing this webpage?

Checkout our new Data API! CWMSDataAPI (CDA)

All information presented herein is the property of the government of the United States of America and may be revised or deleted at any time without prior notice. Dissemination of this information without the expressed written consent of the Public Affairs Office, Tulsa District U.S. Army Corps of Engineers is strictly prohibited. These data are gathered electronically and, as presented, have NOT undergone any form of quality control. These data are NOT guaranteed to be valid or correct.